Weather at Cerknica-Marof Airfield

Public forecast

Using degrees Celsius for public forecast. Weather courtesy of forecast.io.

Closest aviation weather report (METAR) to Cerknica-Marof Airfield

Closest report is Ljubljana Jože Pučnik Airport, 26.9 nm (49.9 km) N.

2024/05/21 13:00 (retrieved 38 minutes ago)

LJLJ 211300Z 30003KT 260V350 9999 -SHRA FEW005 SCT023TCU BKN030 16/15 Q1006 RESHRA NOSIG

Closest aviation forecast (TAF) to Cerknica-Marof Airfield

Closest forecast is Ljubljana Jože Pučnik Airport, 26.9 nm (49.9 km) N.

2024/05/21 12:06 (retrieved 2 hours ago)

TAF LJLJ 211100Z 2112/2212 VRB02KT 9999 FEW007 BKN045 TEMPO 2112/2117 SHRA BKN025TCU TEMPO 2112/2116 5000 TSRA BKN025CB PROB30 TEMPO 2117/2208 -SHRA SCT015TCU BKN017 TEMPO 2208/2212 SHRA BKN025TCU TEMPO 2209/2212 5000 TSRA BKN025CB